Connelsville, Missouri
Current Conditions -  °F | °C
As of 7:55 PM on Friday 31 Oct 2014 (Local Time) from KIRK Reporting Station
Clear Clear  
Wind Chill: 29°   Ceiling: Unl
Heat Index: 34°   Visibility: 10mi
Dew Point: 21°   Wind: 6mph
Humidity: 59%   Direction: 340°NNW
Pressure: 30.44"   Gusts: NA
Location:  40.2969°N, 92.7524°W
Report Text: KIRK 010055Z AUTO 34005KT 10SM CLR 01/M06 A3044 RMK AO2 SLP320 T00111061
Loading
Personal Weather Stations






























Interactive Weather Map
Tropical Storm Tracking
New forecast layout! Learn more

10-Day Weather Forecast

Advertisements
Track Severe Weather on mobile